Time;durP1;ratioP1;P1;durP2;ratioP2;P2;SDS_P1;SDS_P2;PMS_P1;PMS_P2;Temp;Humidity;BMP_temperature;BMP_pressure;BME280_temperature;BME280_humidity;BME280_pressure;Samples;Min_cycle;Max_cycle;Signal;HPM_P1;HPM_P2
2022/12/29 00:01:58;;;;;;;;;;;15.60;99.90;;;;;;5058302;28;19920;-82
2022/12/29 00:04:23;;;;;;;;;;;15.60;99.90;;;;;;5057827;28;19970;-81
2022/12/29 00:06:49;;;;;;;;;;;15.60;99.90;;;;;;5058275;28;20370;-83
2022/12/29 00:09:16;;;;;;;;;;;15.60;99.90;;;;;;5058363;28;19916;-82
2022/12/29 00:11:41;;;;;;;;;;;15.60;99.90;;;;;;5058558;28;19908;-83
2022/12/29 00:16:56;;;;;;;;;;;15.60;99.90;;;;;;5052760;28;19919;-85
2022/12/29 00:35:53;;;;;;;;;;;15.60;99.90;;;;;;5073859;28;19913;-84
2022/12/29 00:44:06;;;;;;;;;;;15.60;99.90;;;;;;5057811;28;19962;-84
2022/12/29 00:46:42;;;;;;;;;;;15.60;99.90;;;;;;5058033;28;19915;-84
2022/12/29 00:51:54;;;;;;;;;;;15.60;99.90;;;;;;5057500;28;19919;-83
2022/12/29 00:54:20;;;;;;;;;;;15.60;99.90;;;;;;5057409;28;19909;-84
2022/12/29 00:56:47;;;;;;;;;;;15.50;99.90;;;;;;5053419;28;19917;-83
2022/12/29 00:59:13;;;;;;;;;;;15.50;99.90;;;;;;5036533;28;19916;-83
2022/12/29 01:01:39;;;;;;;;;;;15.50;99.90;;;;;;5036801;28;19909;-83
2022/12/29 01:04:05;;;;;;;;;;;15.50;99.90;;;;;;5036355;28;19916;-83
2022/12/29 01:06:31;;;;;;;;;;;15.50;99.90;;;;;;5037603;28;19909;-83
2022/12/29 01:11:42;;;;;;;;;;;15.50;99.90;;;;;;5053252;28;20190;-82
2022/12/29 01:14:07;;;;;;;;;;;15.50;99.90;;;;;;5051425;28;19920;-82
2022/12/29 01:16:33;;;;;;;;;;;15.50;99.90;;;;;;5039981;28;19963;-82
2022/12/29 01:18:59;;;;;;;;;;;15.50;99.90;;;;;;5055948;28;19962;-83
2022/12/29 01:21:25;;;;;;;;;;;15.50;99.90;;;;;;5056933;28;19924;-83
2022/12/29 01:23:51;;;;;;;;;;;15.50;99.90;;;;;;5039843;28;19913;-82
2022/12/29 01:26:17;;;;;;;;;;;15.50;99.90;;;;;;5056910;28;19908;-81
2022/12/29 01:28:43;;;;;;;;;;;15.50;99.90;;;;;;5053771;28;19913;-82
2022/12/29 01:31:10;;;;;;;;;;;15.50;99.90;;;;;;5055435;28;19928;-82
2022/12/29 01:33:36;;;;;;;;;;;15.50;99.90;;;;;;5022179;28;20038;-82
2022/12/29 01:36:06;;;;;;;;;;;15.50;99.90;;;;;;5055566;28;19915;-85
2022/12/29 01:38:32;;;;;;;;;;;15.50;99.90;;;;;;5072599;28;21201;-82
2022/12/29 01:40:58;;;;;;;;;;;15.50;99.90;;;;;;5052254;28;19909;-83
2022/12/29 01:44:03;;;;;;;;;;;15.50;99.90;;;;;;5055788;28;19935;-83
2022/12/29 01:46:37;;;;;;;;;;;15.50;99.90;;;;;;5034296;28;19956;-82
2022/12/29 01:49:15;;;;;;;;;;;15.50;99.90;;;;;;5017043;28;19916;-85
2022/12/29 01:51:46;;;;;;;;;;;15.50;99.90;;;;;;5045977;28;19915;-82
2022/12/29 01:54:14;;;;;;;;;;;15.50;99.90;;;;;;5054345;28;19908;-82
2022/12/29 01:56:40;;;;;;;;;;;15.40;99.90;;;;;;5043505;28;20002;-83
2022/12/29 01:59:08;;;;;;;;;;;15.50;99.90;;;;;;5067138;28;19971;-83
2022/12/29 02:01:34;;;;;;;;;;;15.50;99.90;;;;;;5055634;28;19919;-82
2022/12/29 02:04:00;;;;;;;;;;;15.40;99.90;;;;;;5054975;28;19909;-82
2022/12/29 02:06:29;;;;;;;;;;;15.50;99.90;;;;;;5055508;28;20042;-82
2022/12/29 02:08:55;;;;;;;;;;;15.40;99.90;;;;;;5056125;28;19913;-82
2022/12/29 02:11:22;;;;;;;;;;;15.40;99.90;;;;;;5054804;28;19915;-82
2022/12/29 02:13:48;;;;;;;;;;;15.40;99.90;;;;;;5056358;28;19913;-83
2022/12/29 02:16:14;;;;;;;;;;;15.40;99.90;;;;;;5055868;28;20308;-82
2022/12/29 02:18:43;;;;;;;;;;;15.40;99.90;;;;;;5071108;28;19909;-83
2022/12/29 02:21:28;;;;;;;;;;;15.40;99.90;;;;;;5071330;28;19912;-82
2022/12/29 02:24:20;;;;;;;;;;;15.40;99.90;;;;;;5071900;28;19908;-82
2022/12/29 02:26:46;;;;;;;;;;;15.30;99.90;;;;;;5086802;28;19915;-81
2022/12/29 02:29:30;;;;;;;;;;;15.40;99.90;;;;;;5055769;28;20007;-82
2022/12/29 02:32:03;;;;;;;;;;;15.40;99.90;;;;;;5036190;28;20308;-82
2022/12/29 02:34:47;;;;;;;;;;;15.40;99.90;;;;;;5035893;28;19996;-81
2022/12/29 02:37:36;;;;;;;;;;;15.40;99.90;;;;;;5068188;28;19917;-82
2022/12/29 02:40:02;;;;;;;;;;;15.40;99.90;;;;;;5035118;28;20224;-82
2022/12/29 02:42:57;;;;;;;;;;;15.40;99.90;;;;;;5051315;28;19919;-83
2022/12/29 02:45:30;;;;;;;;;;;15.40;99.90;;;;;;5026089;28;20266;-83
2022/12/29 02:48:17;;;;;;;;;;;15.40;99.90;;;;;;5034455;28;19909;-85
2022/12/29 02:50:48;;;;;;;;;;;15.40;99.90;;;;;;5035916;28;19916;-82
2022/12/29 02:53:15;;;;;;;;;;;15.40;99.90;;;;;;5034618;28;19913;-82
2022/12/29 02:55:51;;;;;;;;;;;15.40;99.90;;;;;;5035995;28;20208;-81
2022/12/29 02:58:17;;;;;;;;;;;15.40;99.90;;;;;;5034531;28;20116;-81
2022/12/29 03:01:03;;;;;;;;;;;15.40;99.90;;;;;;5051702;28;19959;-82
2022/12/29 03:03:39;;;;;;;;;;;15.30;99.90;;;;;;5063655;28;19962;-82
2022/12/29 03:06:14;;;;;;;;;;;15.30;99.90;;;;;;5037272;28;19928;-83
2022/12/29 03:09:00;;;;;;;;;;;15.30;99.90;;;;;;5071483;28;19908;-83
2022/12/29 03:17:20;;;;;;;;;;;15.30;99.90;;;;;;5070830;28;20392;-83
2022/12/29 03:19:50;;;;;;;;;;;15.30;99.90;;;;;;5054278;28;19955;-84
2022/12/29 03:22:26;;;;;;;;;;;15.30;99.90;;;;;;5055637;28;19920;-84
2022/12/29 03:25:00;;;;;;;;;;;15.30;99.90;;;;;;5058332;28;19908;-83
2022/12/29 03:27:32;;;;;;;;;;;15.30;99.90;;;;;;5057805;28;19915;-83
2022/12/29 03:30:01;;;;;;;;;;;15.30;99.90;;;;;;5074832;28;19909;-83
2022/12/29 03:32:35;;;;;;;;;;;15.30;99.90;;;;;;5057372;28;20266;-82
2022/12/29 03:35:01;;;;;;;;;;;15.30;99.90;;;;;;5057562;28;19908;-82
2022/12/29 03:37:50;;;;;;;;;;;15.30;99.90;;;;;;5057638;28;19923;-82
2022/12/29 03:40:17;;;;;;;;;;;15.30;99.90;;;;;;5085656;28;19947;-83
2022/12/29 03:42:43;;;;;;;;;;;15.30;99.90;;;;;;5074497;28;19960;-82
2022/12/29 03:45:11;;;;;;;;;;;15.30;99.90;;;;;;5074461;28;19943;-81
2022/12/29 03:47:37;;;;;;;;;;;15.30;99.90;;;;;;5058183;28;19913;-81
2022/12/29 03:50:04;;;;;;;;;;;15.30;99.90;;;;;;5057245;28;19913;-82
2022/12/29 03:52:33;;;;;;;;;;;15.30;99.90;;;;;;5074441;28;19981;-82
2022/12/29 03:54:59;;;;;;;;;;;15.30;99.90;;;;;;5057680;28;20308;-82
2022/12/29 03:57:25;;;;;;;;;;;15.30;99.90;;;;;;5044221;28;19917;-82
2022/12/29 03:59:57;;;;;;;;;;;15.30;99.90;;;;;;5070919;28;19916;-82
2022/12/29 04:02:23;;;;;;;;;;;15.30;99.90;;;;;;5037106;28;19913;-82
2022/12/29 04:04:49;;;;;;;;;;;15.30;99.90;;;;;;5053786;28;19913;-83
2022/12/29 04:07:15;;;;;;;;;;;15.30;99.90;;;;;;5038487;28;19909;-82
2022/12/29 04:09:42;;;;;;;;;;;15.30;99.90;;;;;;5054061;28;20329;-83
2022/12/29 04:12:11;;;;;;;;;;;15.30;99.90;;;;;;5037336;28;19913;-83
2022/12/29 04:14:36;;;;;;;;;;;15.30;99.90;;;;;;5037236;28;20642;-82
2022/12/29 04:17:02;;;;;;;;;;;15.30;99.90;;;;;;5070036;28;19917;-82
2022/12/29 04:19:29;;;;;;;;;;;15.30;99.90;;;;;;5070013;28;19921;-82
2022/12/29 04:21:55;;;;;;;;;;;15.30;99.90;;;;;;5053475;28;20228;-82
2022/12/29 04:24:21;;;;;;;;;;;15.30;99.90;;;;;;5070254;28;19945;-83
2022/12/29 04:26:49;;;;;;;;;;;15.20;99.90;;;;;;5053595;28;19913;-83
2022/12/29 04:29:38;;;;;;;;;;;15.30;99.90;;;;;;5038030;28;20211;-83
2022/12/29 04:32:03;;;;;;;;;;;15.20;99.90;;;;;;5057341;28;20008;-83
2022/12/29 04:34:32;;;;;;;;;;;15.20;99.90;;;;;;5072865;28;19920;-83
2022/12/29 04:36:58;;;;;;;;;;;15.20;99.90;;;;;;5056287;28;19921;-83
2022/12/29 04:39:24;;;;;;;;;;;15.30;99.90;;;;;;5073194;28;19916;-82
2022/12/29 04:41:51;;;;;;;;;;;15.20;99.90;;;;;;5056696;28;19916;-83
2022/12/29 04:44:20;;;;;;;;;;;15.20;99.90;;;;;;5056708;28;20074;-85
2022/12/29 04:46:54;;;;;;;;;;;15.20;99.90;;;;;;5055044;28;19938;-83
2022/12/29 04:49:49;;;;;;;;;;;15.30;99.90;;;;;;5017216;28;19914;-84
2022/12/29 04:52:35;;;;;;;;;;;15.20;99.90;;;;;;5035732;28;19962;-83
2022/12/29 04:55:02;;;;;;;;;;;15.20;99.90;;;;;;5056051;28;19966;-83
2022/12/29 04:57:28;;;;;;;;;;;15.20;99.90;;;;;;5055353;28;20330;-83
2022/12/29 04:59:56;;;;;;;;;;;15.20;99.90;;;;;;5055901;28;20004;-83
2022/12/29 05:02:23;;;;;;;;;;;15.20;99.90;;;;;;5039144;28;20201;-84
2022/12/29 05:04:50;;;;;;;;;;;15.20;99.90;;;;;;5055367;28;20003;-84
2022/12/29 05:07:16;;;;;;;;;;;15.20;99.90;;;;;;5053653;28;19996;-83
2022/12/29 05:09:43;;;;;;;;;;;15.20;99.90;;;;;;5054648;28;20015;-84
2022/12/29 05:12:10;;;;;;;;;;;15.20;99.90;;;;;;5055643;28;19917;-83
2022/12/29 05:14:42;;;;;;;;;;;15.20;99.90;;;;;;5055464;28;19916;-84
2022/12/29 05:17:08;;;;;;;;;;;15.20;99.90;;;;;;5052261;28;19923;-84
2022/12/29 05:19:34;;;;;;;;;;;15.20;99.90;;;;;;5055169;28;19917;-84
2022/12/29 05:22:00;;;;;;;;;;;15.20;99.90;;;;;;5052959;28;19943;-85
2022/12/29 05:24:26;;;;;;;;;;;15.20;99.90;;;;;;5055243;28;19952;-84
2022/12/29 05:26:55;;;;;;;;;;;15.20;99.90;;;;;;5055259;28;19927;-84
2022/12/29 05:29:32;;;;;;;;;;;15.20;99.90;;;;;;5085945;28;19995;-83
2022/12/29 05:31:58;;;;;;;;;;;15.20;99.90;;;;;;5054871;28;20012;-85
2022/12/29 05:34:24;;;;;;;;;;;15.20;99.90;;;;;;5071539;28;19913;-85
2022/12/29 05:36:50;;;;;;;;;;;15.20;99.90;;;;;;5055718;28;19916;-84
2022/12/29 05:39:16;;;;;;;;;;;15.20;99.90;;;;;;5055405;28;19915;-84
2022/12/29 05:41:46;;;;;;;;;;;15.10;99.90;;;;;;5055072;28;19913;-84
2022/12/29 05:44:15;;;;;;;;;;;15.20;99.90;;;;;;5055682;28;20231;-84
2022/12/29 05:47:03;;;;;;;;;;;15.10;99.90;;;;;;5055245;28;19956;-84
2022/12/29 05:49:41;;;;;;;;;;;15.20;99.90;;;;;;5054575;28;19943;-83
2022/12/29 05:52:28;;;;;;;;;;;15.20;99.90;;;;;;5054130;28;19944;-84
2022/12/29 05:54:54;;;;;;;;;;;15.10;99.90;;;;;;5069349;28;20033;-83
2022/12/29 05:57:22;;;;;;;;;;;15.10;99.90;;;;;;5051872;28;19913;-82
2022/12/29 05:59:56;;;;;;;;;;;15.20;99.90;;;;;;5051951;28;19976;-83
2022/12/29 06:02:22;;;;;;;;;;;15.10;99.90;;;;;;5068458;28;19920;-83
2022/12/29 06:04:48;;;;;;;;;;;15.10;99.90;;;;;;5067575;28;20013;-82
2022/12/29 06:07:14;;;;;;;;;;;15.10;99.90;;;;;;5035072;28;19913;-83
2022/12/29 06:09:43;;;;;;;;;;;15.10;99.90;;;;;;5068124;28;19913;-83
2022/12/29 06:12:09;;;;;;;;;;;15.10;99.90;;;;;;5068503;28;19936;-83
2022/12/29 06:14:37;;;;;;;;;;;15.10;99.90;;;;;;5068601;28;19924;-84
2022/12/29 06:17:03;;;;;;;;;;;15.10;99.90;;;;;;5034748;28;19920;-84
2022/12/29 06:19:29;;;;;;;;;;;15.10;99.90;;;;;;5068394;28;19909;-83
2022/12/29 06:21:55;;;;;;;;;;;15.10;99.90;;;;;;5050919;28;19916;-84
2022/12/29 06:24:21;;;;;;;;;;;15.10;99.90;;;;;;5052011;28;20312;-83
2022/12/29 06:26:47;;;;;;;;;;;15.10;99.90;;;;;;5068219;28;19913;-84
2022/12/29 06:29:16;;;;;;;;;;;15.10;99.90;;;;;;5068053;28;20224;-84
2022/12/29 06:31:43;;;;;;;;;;;15.10;99.90;;;;;;5051402;28;19921;-83
2022/12/29 06:34:09;;;;;;;;;;;15.10;99.90;;;;;;5034293;28;19909;-83
2022/12/29 06:36:36;;;;;;;;;;;15.10;99.90;;;;;;5050956;28;19928;-83
2022/12/29 06:39:01;;;;;;;;;;;15.10;99.90;;;;;;5036028;28;19913;-82
2022/12/29 06:41:27;;;;;;;;;;;15.10;99.90;;;;;;5051679;28;19909;-82
2022/12/29 06:44:16;;;;;;;;;;;15.10;99.90;;;;;;5007782;28;19913;-83
2022/12/29 06:47:00;;;;;;;;;;;15.10;99.90;;;;;;5035697;28;19913;-83
2022/12/29 06:49:26;;;;;;;;;;;15.10;99.90;;;;;;5035663;28;20224;-82
2022/12/29 06:51:52;;;;;;;;;;;15.10;99.90;;;;;;5035387;28;20019;-84
2022/12/29 06:54:18;;;;;;;;;;;15.10;99.90;;;;;;5035979;28;19913;-84
2022/12/29 06:56:43;;;;;;;;;;;15.10;99.90;;;;;;5037588;28;20236;-83
2022/12/29 06:59:09;;;;;;;;;;;15.10;99.90;;;;;;5039345;28;19913;-83
2022/12/29 07:01:35;;;;;;;;;;;15.10;99.90;;;;;;5050345;28;19920;-84
2022/12/29 07:04:02;;;;;;;;;;;15.10;99.90;;;;;;5038739;28;19913;-83
2022/12/29 07:06:28;;;;;;;;;;;15.10;99.90;;;;;;5039231;28;19913;-83
2022/12/29 07:08:54;;;;;;;;;;;15.10;99.90;;;;;;5045733;28;20330;-83
2022/12/29 07:11:20;;;;;;;;;;;15.10;99.90;;;;;;5055594;28;19916;-83
2022/12/29 07:13:46;;;;;;;;;;;15.10;99.90;;;;;;5047356;28;19913;-82
2022/12/29 07:16:12;;;;;;;;;;;15.10;99.90;;;;;;5039779;28;19915;-83
2022/12/29 07:18:38;;;;;;;;;;;15.10;99.90;;;;;;5070583;28;19967;-83
2022/12/29 07:21:04;;;;;;;;;;;15.10;99.90;;;;;;5038934;28;19921;-83
2022/12/29 07:23:30;;;;;;;;;;;15.10;99.90;;;;;;5039247;28;19944;-82
2022/12/29 07:26:02;;;;;;;;;;;15.10;99.90;;;;;;5039072;28;20012;-84
2022/12/29 07:28:28;;;;;;;;;;;15.00;99.90;;;;;;5054606;28;19999;-83
2022/12/29 07:30:54;;;;;;;;;;;15.00;99.90;;;;;;5077294;28;20002;-83
2022/12/29 07:33:20;;;;;;;;;;;15.00;99.90;;;;;;5077604;28;19923;-82
2022/12/29 07:35:46;;;;;;;;;;;15.00;99.90;;;;;;5078483;28;19908;-82
2022/12/29 07:38:12;;;;;;;;;;;15.00;99.90;;;;;;5078817;28;19917;-81
2022/12/29 07:40:38;;;;;;;;;;;15.00;99.90;;;;;;5072769;28;19908;-82
2022/12/29 07:43:04;;;;;;;;;;;15.00;99.90;;;;;;5066550;28;20007;-84
2022/12/29 07:45:39;;;;;;;;;;;15.00;99.90;;;;;;5077625;28;20284;-83
2022/12/29 07:48:08;;;;;;;;;;;15.00;99.90;;;;;;5076894;28;19908;-82
2022/12/29 07:50:34;;;;;;;;;;;15.00;99.90;;;;;;5078626;28;19908;-82
2022/12/29 07:53:00;;;;;;;;;;;15.00;99.90;;;;;;5078693;28;20254;-82
2022/12/29 07:55:26;;;;;;;;;;;15.00;99.90;;;;;;5061048;28;19912;-81
2022/12/29 07:57:55;;;;;;;;;;;15.00;99.90;;;;;;5046391;28;20453;-85
2022/12/29 08:00:21;;;;;;;;;;;15.00;99.90;;;;;;5054934;28;19967;-85
2022/12/29 08:02:47;;;;;;;;;;;14.90;99.90;;;;;;5052829;28;20034;-82
2022/12/29 08:05:13;;;;;;;;;;;14.90;99.90;;;;;;5058138;28;20011;-84
2022/12/29 08:07:38;;;;;;;;;;;14.90;99.90;;;;;;5053358;28;19922;-85
2022/12/29 08:10:05;;;;;;;;;;;14.90;99.90;;;;;;5057272;28;20439;-83
2022/12/29 08:12:30;;;;;;;;;;;14.90;99.90;;;;;;5057199;28;19974;-84
2022/12/29 08:14:56;;;;;;;;;;;14.90;99.90;;;;;;5055620;28;20003;-85
2022/12/29 08:17:22;;;;;;;;;;;14.90;99.90;;;;;;5054994;28;19920;-85
2022/12/29 08:19:48;;;;;;;;;;;14.90;99.90;;;;;;5055666;28;20316;-84
2022/12/29 08:22:14;;;;;;;;;;;14.90;99.90;;;;;;5057508;28;19928;-86
2022/12/29 08:24:40;;;;;;;;;;;14.90;99.90;;;;;;5055553;28;19931;-88
2022/12/29 08:27:06;;;;;;;;;;;15.00;99.90;;;;;;5057426;28;20296;-84
2022/12/29 08:29:32;;;;;;;;;;;15.00;99.90;;;;;;5050929;28;19962;-85
2022/12/29 08:31:58;;;;;;;;;;;15.00;99.90;;;;;;5053939;28;19909;-83
2022/12/29 08:34:23;;;;;;;;;;;15.00;99.90;;;;;;5055385;28;20546;-83
2022/12/29 08:36:49;;;;;;;;;;;15.00;99.90;;;;;;5057266;28;19920;-83
